METAR Data
IDs: Format: Raw Decoded Include TAF

Data at: 1336 UTC 11 Dec 2018

KMQY 111256Z 00000KT 8SM CLR M08/M09 A3038 RMK AO2 SLP333 T10831094